sensor_id;sensor_type;location;lat;lon;timestamp;pressure;altitude;pressure_sealevel;temperature;humidity
77005;BME280;67261;53.132;18.006;2023-07-31T00:02:03;100484.11;;;18.46;68.12
77005;BME280;67261;53.132;18.006;2023-07-31T00:04:29;100488.46;;;18.44;68.22
77005;BME280;67261;53.132;18.006;2023-07-31T00:06:55;100485.95;;;18.41;68.42
77005;BME280;67261;53.132;18.006;2023-07-31T00:09:22;100485.75;;;18.40;68.44
77005;BME280;67261;53.132;18.006;2023-07-31T00:11:48;100486.54;;;18.38;68.55
77005;BME280;67261;53.132;18.006;2023-07-31T00:14:14;100483.36;;;18.36;68.44
77005;BME280;67261;53.132;18.006;2023-07-31T00:16:41;100484.95;;;18.37;68.42
77005;BME280;67261;53.132;18.006;2023-07-31T00:19:07;100482.89;;;18.37;68.52
77005;BME280;67261;53.132;18.006;2023-07-31T00:21:34;100483.27;;;18.37;68.62
77005;BME280;67261;53.132;18.006;2023-07-31T00:24:00;100484.27;;;18.36;68.88
77005;BME280;67261;53.132;18.006;2023-07-31T00:26:26;100480.98;;;18.35;68.85
77005;BME280;67261;53.132;18.006;2023-07-31T00:28:53;100475.38;;;18.35;68.77
77005;BME280;67261;53.132;18.006;2023-07-31T00:31:19;100471.74;;;18.34;68.65
77005;BME280;67261;53.132;18.006;2023-07-31T00:33:45;100480.27;;;18.33;69.00
77005;BME280;67261;53.132;18.006;2023-07-31T00:36:11;100482.45;;;18.31;69.02
77005;BME280;67261;53.132;18.006;2023-07-31T00:38:38;100479.69;;;18.31;68.89
77005;BME280;67261;53.132;18.006;2023-07-31T00:41:05;100482.17;;;18.29;68.82
77005;BME280;67261;53.132;18.006;2023-07-31T00:43:32;100483.90;;;18.29;68.94
77005;BME280;67261;53.132;18.006;2023-07-31T00:45:58;100482.65;;;18.27;69.12
77005;BME280;67261;53.132;18.006;2023-07-31T00:48:25;100479.65;;;18.26;69.27
77005;BME280;67261;53.132;18.006;2023-07-31T00:50:51;100483.37;;;18.25;69.41
77005;BME280;67261;53.132;18.006;2023-07-31T00:53:18;100483.54;;;18.25;69.61
77005;BME280;67261;53.132;18.006;2023-07-31T00:55:44;100491.77;;;18.24;69.56
77005;BME280;67261;53.132;18.006;2023-07-31T00:58:11;100492.80;;;18.20;69.77
77005;BME280;67261;53.132;18.006;2023-07-31T01:00:39;100493.22;;;18.17;70.03
77005;BME280;67261;53.132;18.006;2023-07-31T01:03:06;100493.43;;;18.17;70.19
77005;BME280;67261;53.132;18.006;2023-07-31T01:11:16;100496.54;;;18.14;70.40
77005;BME280;67261;53.132;18.006;2023-07-31T01:13:45;100500.70;;;18.12;70.55
77005;BME280;67261;53.132;18.006;2023-07-31T01:16:12;100498.98;;;18.10;70.61
77005;BME280;67261;53.132;18.006;2023-07-31T01:18:38;100502.77;;;18.08;70.65
77005;BME280;67261;53.132;18.006;2023-07-31T01:21:28;100501.66;;;18.05;70.82
77005;BME280;67261;53.132;18.006;2023-07-31T01:24:28;100508.40;;;18.04;70.84
77005;BME280;67261;53.132;18.006;2023-07-31T01:27:06;100505.70;;;18.01;70.67
77005;BME280;67261;53.132;18.006;2023-07-31T01:29:45;100506.34;;;17.97;70.71
77005;BME280;67261;53.132;18.006;2023-07-31T01:32:13;100505.42;;;17.93;70.91
77005;BME280;67261;53.132;18.006;2023-07-31T01:34:42;100507.58;;;17.88;70.78
77005;BME280;67261;53.132;18.006;2023-07-31T01:37:09;100508.52;;;17.84;70.84
77005;BME280;67261;53.132;18.006;2023-07-31T01:39:36;100501.70;;;17.78;71.04
77005;BME280;67261;53.132;18.006;2023-07-31T01:42:02;100501.16;;;17.73;71.29
77005;BME280;67261;53.132;18.006;2023-07-31T01:44:29;100500.67;;;17.69;71.30
77005;BME280;67261;53.132;18.006;2023-07-31T01:46:55;100493.43;;;17.66;71.37
77005;BME280;67261;53.132;18.006;2023-07-31T01:49:22;100491.74;;;17.62;71.62
77005;BME280;67261;53.132;18.006;2023-07-31T01:51:48;100492.89;;;17.59;71.69
77005;BME280;67261;53.132;18.006;2023-07-31T01:54:15;100497.34;;;17.56;71.46
77005;BME280;67261;53.132;18.006;2023-07-31T01:56:41;100496.20;;;17.53;71.61
77005;BME280;67261;53.132;18.006;2023-07-31T01:59:08;100499.09;;;17.50;71.76
77005;BME280;67261;53.132;18.006;2023-07-31T02:01:34;100499.12;;;17.47;71.87
77005;BME280;67261;53.132;18.006;2023-07-31T02:04:01;100499.53;;;17.44;72.06
77005;BME280;67261;53.132;18.006;2023-07-31T02:06:29;100495.75;;;17.39;72.10
77005;BME280;67261;53.132;18.006;2023-07-31T02:08:55;100495.64;;;17.36;72.18
77005;BME280;67261;53.132;18.006;2023-07-31T02:11:21;100498.27;;;17.31;72.30
77005;BME280;67261;53.132;18.006;2023-07-31T02:13:49;100498.05;;;17.28;72.26
77005;BME280;67261;53.132;18.006;2023-07-31T02:16:15;100501.34;;;17.25;72.54
77005;BME280;67261;53.132;18.006;2023-07-31T02:18:42;100499.71;;;17.21;72.50
77005;BME280;67261;53.132;18.006;2023-07-31T02:21:08;100503.30;;;17.17;72.57
77005;BME280;67261;53.132;18.006;2023-07-31T02:23:34;100507.04;;;17.13;72.71
77005;BME280;67261;53.132;18.006;2023-07-31T02:26:00;100510.01;;;17.11;72.92
77005;BME280;67261;53.132;18.006;2023-07-31T02:28:27;100508.50;;;17.07;72.96
77005;BME280;67261;53.132;18.006;2023-07-31T02:30:56;100502.73;;;17.04;73.26
77005;BME280;67261;53.132;18.006;2023-07-31T02:33:22;100499.61;;;17.00;73.24
77005;BME280;67261;53.132;18.006;2023-07-31T02:35:48;100503.77;;;16.98;73.37
77005;BME280;67261;53.132;18.006;2023-07-31T02:38:15;100508.88;;;16.96;73.27
77005;BME280;67261;53.132;18.006;2023-07-31T02:40:41;100508.33;;;16.93;73.35
77005;BME280;67261;53.132;18.006;2023-07-31T02:43:08;100511.04;;;16.89;73.51
77005;BME280;67261;53.132;18.006;2023-07-31T02:45:36;100513.70;;;16.87;73.55
77005;BME280;67261;53.132;18.006;2023-07-31T02:48:02;100515.88;;;16.84;73.53
77005;BME280;67261;53.132;18.006;2023-07-31T02:50:29;100515.23;;;16.81;73.81
77005;BME280;67261;53.132;18.006;2023-07-31T02:52:55;100512.88;;;16.77;73.76
77005;BME280;67261;53.132;18.006;2023-07-31T02:55:21;100517.65;;;16.76;73.77
77005;BME280;67261;53.132;18.006;2023-07-31T02:57:47;100517.95;;;16.75;73.75
77005;BME280;67261;53.132;18.006;2023-07-31T03:00:14;100517.34;;;16.73;73.85
77005;BME280;67261;53.132;18.006;2023-07-31T03:02:41;100511.36;;;16.71;74.06
77005;BME280;67261;53.132;18.006;2023-07-31T03:05:07;100506.72;;;16.69;73.74
77005;BME280;67261;53.132;18.006;2023-07-31T03:07:34;100507.27;;;16.69;73.90
77005;BME280;67261;53.132;18.006;2023-07-31T03:10:00;100506.08;;;16.69;73.82
77005;BME280;67261;53.132;18.006;2023-07-31T03:12:27;100504.30;;;16.71;73.86
77005;BME280;67261;53.132;18.006;2023-07-31T03:14:53;100503.61;;;16.71;73.98
77005;BME280;67261;53.132;18.006;2023-07-31T03:17:20;100508.15;;;16.74;73.87
77005;BME280;67261;53.132;18.006;2023-07-31T03:19:46;100514.15;;;16.77;73.93
77005;BME280;67261;53.132;18.006;2023-07-31T03:22:13;100512.69;;;16.81;73.91
77005;BME280;67261;53.132;18.006;2023-07-31T03:24:39;100516.55;;;16.87;73.71
77005;BME280;67261;53.132;18.006;2023-07-31T03:27:05;100519.43;;;16.94;73.48
77005;BME280;67261;53.132;18.006;2023-07-31T03:29:32;100527.05;;;17.02;73.26
77005;BME280;67261;53.132;18.006;2023-07-31T03:31:58;100528.85;;;17.10;73.26
77005;BME280;67261;53.132;18.006;2023-07-31T03:34:25;100533.35;;;17.20;72.99
77005;BME280;67261;53.132;18.006;2023-07-31T03:36:51;100532.48;;;17.30;72.82
77005;BME280;67261;53.132;18.006;2023-07-31T03:39:18;100532.66;;;17.56;72.40
77005;BME280;67261;53.132;18.006;2023-07-31T03:41:44;100536.49;;;17.90;71.86
77005;BME280;67261;53.132;18.006;2023-07-31T03:44:10;100535.38;;;18.13;71.38
77005;BME280;67261;53.132;18.006;2023-07-31T03:46:38;100537.92;;;18.34;70.96
77005;BME280;67261;53.132;18.006;2023-07-31T03:49:04;100540.20;;;18.43;70.63
77005;BME280;67261;53.132;18.006;2023-07-31T03:51:30;100537.87;;;18.49;70.43
77005;BME280;67261;53.132;18.006;2023-07-31T03:53:57;100537.10;;;18.55;70.09
77005;BME280;67261;53.132;18.006;2023-07-31T03:56:23;100538.82;;;18.62;69.99
77005;BME280;67261;53.132;18.006;2023-07-31T03:58:49;100538.96;;;18.70;69.78
77005;BME280;67261;53.132;18.006;2023-07-31T04:01:16;100541.69;;;18.86;69.30
77005;BME280;67261;53.132;18.006;2023-07-31T04:03:42;100540.79;;;19.06;68.91
77005;BME280;67261;53.132;18.006;2023-07-31T04:06:08;100541.41;;;19.25;68.44
77005;BME280;67261;53.132;18.006;2023-07-31T04:08:36;100538.23;;;19.52;67.81
77005;BME280;67261;53.132;18.006;2023-07-31T04:11:02;100537.15;;;19.69;67.25
77005;BME280;67261;53.132;18.006;2023-07-31T04:13:29;100536.56;;;20.09;66.49
77005;BME280;67261;53.132;18.006;2023-07-31T04:15:56;100535.34;;;20.54;65.74
77005;BME280;67261;53.132;18.006;2023-07-31T04:18:25;100529.96;;;20.84;64.85
77005;BME280;67261;53.132;18.006;2023-07-31T04:20:52;100535.54;;;20.72;64.79
77005;BME280;67261;53.132;18.006;2023-07-31T04:23:18;100534.94;;;20.58;64.58
77005;BME280;67261;53.132;18.006;2023-07-31T04:25:45;100534.20;;;20.44;64.43
77005;BME280;67261;53.132;18.006;2023-07-31T04:28:11;100530.12;;;20.33;64.33
77005;BME280;67261;53.132;18.006;2023-07-31T04:30:37;100530.20;;;20.25;64.37
77005;BME280;67261;53.132;18.006;2023-07-31T04:33:04;100528.14;;;20.25;64.33
77005;BME280;67261;53.132;18.006;2023-07-31T04:35:30;100524.98;;;20.64;63.60
77005;BME280;67261;53.132;18.006;2023-07-31T04:37:56;100520.92;;;21.56;62.23
77005;BME280;67261;53.132;18.006;2023-07-31T04:40:22;100519.02;;;22.72;60.30
77005;BME280;67261;53.132;18.006;2023-07-31T04:42:49;100524.02;;;24.15;57.96
77005;BME280;67261;53.132;18.006;2023-07-31T04:45:15;100527.08;;;25.19;56.07
77005;BME280;67261;53.132;18.006;2023-07-31T04:47:42;100521.04;;;26.27;54.26
77005;BME280;67261;53.132;18.006;2023-07-31T04:50:11;100520.55;;;27.72;52.19
77005;BME280;67261;53.132;18.006;2023-07-31T04:52:38;100523.42;;;29.67;48.79
77005;BME280;67261;53.132;18.006;2023-07-31T04:55:04;100525.46;;;31.13;46.80
77005;BME280;67261;53.132;18.006;2023-07-31T04:57:30;100520.36;;;32.42;44.40
77005;BME280;67261;53.132;18.006;2023-07-31T04:59:57;100521.74;;;33.02;42.86
77005;BME280;67261;53.132;18.006;2023-07-31T05:02:24;100523.80;;;34.09;40.91
77005;BME280;67261;53.132;18.006;2023-07-31T05:04:50;100525.72;;;35.27;38.63
77005;BME280;67261;53.132;18.006;2023-07-31T05:07:17;100527.07;;;35.97;37.15
77005;BME280;67261;53.132;18.006;2023-07-31T05:09:44;100531.48;;;35.69;36.28
77005;BME280;67261;53.132;18.006;2023-07-31T05:12:10;100529.17;;;34.61;36.37
77005;BME280;67261;53.132;18.006;2023-07-31T05:14:36;100529.58;;;33.79;35.91
77005;BME280;67261;53.132;18.006;2023-07-31T05:17:03;100528.61;;;33.33;35.79
77005;BME280;67261;53.132;18.006;2023-07-31T05:19:30;100525.77;;;33.95;34.39
77005;BME280;67261;53.132;18.006;2023-07-31T05:21:58;100529.54;;;33.90;34.22
77005;BME280;67261;53.132;18.006;2023-07-31T05:24:25;100531.80;;;33.31;34.24
77005;BME280;67261;53.132;18.006;2023-07-31T05:26:52;100530.02;;;32.54;34.40
77005;BME280;67261;53.132;18.006;2023-07-31T05:29:18;100527.34;;;32.00;34.44
77005;BME280;67261;53.132;18.006;2023-07-31T05:31:44;100528.10;;;32.53;33.59
77005;BME280;67261;53.132;18.006;2023-07-31T05:34:11;100526.45;;;33.20;32.91
77005;BME280;67261;53.132;18.006;2023-07-31T05:36:37;100522.98;;;34.28;31.81
77005;BME280;67261;53.132;18.006;2023-07-31T05:39:03;100518.69;;;35.71;30.32
77005;BME280;67261;53.132;18.006;2023-07-31T05:41:33;100517.29;;;37.06;28.81
77005;BME280;67261;53.132;18.006;2023-07-31T05:43:59;100519.45;;;37.60;28.06
77005;BME280;67261;53.132;18.006;2023-07-31T05:46:25;100515.64;;;38.40;26.93
77005;BME280;67261;53.132;18.006;2023-07-31T05:48:52;100512.14;;;39.09;25.95
77005;BME280;67261;53.132;18.006;2023-07-31T05:51:18;100511.60;;;39.48;25.48
77005;BME280;67261;53.132;18.006;2023-07-31T05:53:44;100513.28;;;40.25;24.67
77005;BME280;67261;53.132;18.006;2023-07-31T05:56:11;100516.02;;;40.88;23.77
77005;BME280;67261;53.132;18.006;2023-07-31T05:58:37;100520.55;;;41.37;23.24
77005;BME280;67261;53.132;18.006;2023-07-31T06:01:03;100524.49;;;41.96;22.21
77005;BME280;67261;53.132;18.006;2023-07-31T06:03:29;100526.20;;;41.18;22.62
77005;BME280;67261;53.132;18.006;2023-07-31T06:05:56;100522.23;;;40.95;22.17
77005;BME280;67261;53.132;18.006;2023-07-31T06:08:22;100520.69;;;40.43;22.03
77005;BME280;67261;53.132;18.006;2023-07-31T06:10:49;100520.16;;;40.95;21.50
77005;BME280;67261;53.132;18.006;2023-07-31T06:13:15;100524.02;;;41.57;21.11
77005;BME280;67261;53.132;18.006;2023-07-31T06:15:41;100524.69;;;42.13;20.61
77005;BME280;67261;53.132;18.006;2023-07-31T06:18:07;100522.04;;;42.53;20.13
77005;BME280;67261;53.132;18.006;2023-07-31T06:20:34;100524.38;;;42.63;19.76
77005;BME280;67261;53.132;18.006;2023-07-31T06:23:01;100523.39;;;42.75;19.54
77005;BME280;67261;53.132;18.006;2023-07-31T06:25:28;100518.45;;;42.75;19.75
77005;BME280;67261;53.132;18.006;2023-07-31T06:27:54;100519.88;;;42.86;19.31
77005;BME280;67261;53.132;18.006;2023-07-31T06:30:21;100518.34;;;42.94;19.14
77005;BME280;67261;53.132;18.006;2023-07-31T06:32:47;100517.35;;;42.63;19.15
77005;BME280;67261;53.132;18.006;2023-07-31T06:35:14;100518.20;;;41.53;19.67
77005;BME280;67261;53.132;18.006;2023-07-31T06:37:45;100518.48;;;40.98;19.97
77005;BME280;67261;53.132;18.006;2023-07-31T06:40:15;100521.29;;;39.98;20.79
77005;BME280;67261;53.132;18.006;2023-07-31T06:42:43;100520.93;;;38.84;21.49
77005;BME280;67261;53.132;18.006;2023-07-31T06:45:10;100525.23;;;37.74;22.30
77005;BME280;67261;53.132;18.006;2023-07-31T06:47:37;100519.98;;;36.77;23.12
77005;BME280;67261;53.132;18.006;2023-07-31T06:50:04;100520.92;;;35.81;23.99
77005;BME280;67261;53.132;18.006;2023-07-31T06:52:31;100521.02;;;35.24;24.82
77005;BME280;67261;53.132;18.006;2023-07-31T06:57:57;100527.88;;;33.51;26.32
77005;BME280;67261;53.132;18.006;2023-07-31T07:00:23;100524.84;;;32.68;27.15
77005;BME280;67261;53.132;18.006;2023-07-31T07:02:50;100523.00;;;31.95;28.01
77005;BME280;67261;53.132;18.006;2023-07-31T07:05:17;100522.59;;;31.51;28.70
77005;BME280;67261;53.132;18.006;2023-07-31T07:07:44;100518.63;;;31.05;29.43
77005;BME280;67261;53.132;18.006;2023-07-31T07:10:10;100520.02;;;30.49;30.15
77005;BME280;67261;53.132;18.006;2023-07-31T07:12:37;100518.36;;;29.99;31.12
77005;BME280;67261;53.132;18.006;2023-07-31T07:15:03;100516.46;;;29.74;31.69
77005;BME280;67261;53.132;18.006;2023-07-31T07:17:30;100520.68;;;29.19;32.58
77005;BME280;67261;53.132;18.006;2023-07-31T07:20:00;100527.13;;;28.72;33.31
77005;BME280;67261;53.132;18.006;2023-07-31T07:22:27;100529.92;;;28.44;33.85
77005;BME280;67261;53.132;18.006;2023-07-31T07:24:53;100530.98;;;28.28;34.29
77005;BME280;67261;53.132;18.006;2023-07-31T07:27:20;100529.41;;;28.10;34.89
77005;BME280;67261;53.132;18.006;2023-07-31T07:29:50;100529.12;;;27.94;35.20
77005;BME280;67261;53.132;18.006;2023-07-31T07:32:17;100528.20;;;28.05;35.60
77005;BME280;67261;53.132;18.006;2023-07-31T07:34:44;100523.69;;;28.22;35.57
77005;BME280;67261;53.132;18.006;2023-07-31T07:37:11;100530.23;;;28.19;35.28
77005;BME280;67261;53.132;18.006;2023-07-31T07:39:38;100528.48;;;28.31;35.57
77005;BME280;67261;53.132;18.006;2023-07-31T07:42:05;100535.05;;;28.51;35.36
77005;BME280;67261;53.132;18.006;2023-07-31T07:44:31;100532.05;;;28.48;35.49
77005;BME280;67261;53.132;18.006;2023-07-31T07:46:59;100531.52;;;28.31;35.91
77005;BME280;67261;53.132;18.006;2023-07-31T07:49:26;100525.70;;;28.16;36.16
77005;BME280;67261;53.132;18.006;2023-07-31T07:51:52;100525.40;;;28.00;36.88
77005;BME280;67261;53.132;18.006;2023-07-31T07:54:18;100522.45;;;27.82;37.04
77005;BME280;67261;53.132;18.006;2023-07-31T07:56:47;100521.91;;;27.63;37.22
77005;BME280;67261;53.132;18.006;2023-07-31T07:59:13;100524.57;;;27.41;37.34
77005;BME280;67261;53.132;18.006;2023-07-31T08:01:39;100526.18;;;27.18;37.32
77005;BME280;67261;53.132;18.006;2023-07-31T08:04:06;100522.84;;;26.95;37.73
77005;BME280;67261;53.132;18.006;2023-07-31T08:06:33;100517.85;;;26.74;38.17
77005;BME280;67261;53.132;18.006;2023-07-31T08:08:59;100524.23;;;26.54;38.85
77005;BME280;67261;53.132;18.006;2023-07-31T08:11:25;100525.14;;;26.33;39.39
77005;BME280;67261;53.132;18.006;2023-07-31T08:13:52;100521.88;;;26.14;39.26
77005;BME280;67261;53.132;18.006;2023-07-31T08:16:19;100521.78;;;26.03;39.54
77005;BME280;67261;53.132;18.006;2023-07-31T08:18:45;100521.63;;;25.97;39.35
77005;BME280;67261;53.132;18.006;2023-07-31T08:21:11;100525.34;;;25.90;39.25
77005;BME280;67261;53.132;18.006;2023-07-31T08:23:38;100524.08;;;25.84;39.71
77005;BME280;67261;53.132;18.006;2023-07-31T08:26:04;100526.64;;;25.80;39.73
77005;BME280;67261;53.132;18.006;2023-07-31T08:28:31;100526.45;;;25.83;39.91
77005;BME280;67261;53.132;18.006;2023-07-31T08:30:57;100526.89;;;25.87;39.89
77005;BME280;67261;53.132;18.006;2023-07-31T08:33:24;100524.36;;;25.86;39.99
77005;BME280;67261;53.132;18.006;2023-07-31T08:35:50;100518.21;;;25.86;40.21
77005;BME280;67261;53.132;18.006;2023-07-31T08:38:16;100517.98;;;25.91;40.25
77005;BME280;67261;53.132;18.006;2023-07-31T08:40:43;100517.23;;;25.98;40.33
77005;BME280;67261;53.132;18.006;2023-07-31T08:43:09;100513.49;;;26.09;39.93
77005;BME280;67261;53.132;18.006;2023-07-31T08:45:36;100511.84;;;26.31;40.01
77005;BME280;67261;53.132;18.006;2023-07-31T08:48:03;100503.97;;;26.53;39.83
77005;BME280;67261;53.132;18.006;2023-07-31T08:50:29;100502.70;;;26.72;39.88
77005;BME280;67261;53.132;18.006;2023-07-31T08:52:55;100506.13;;;27.00;39.77
77005;BME280;67261;53.132;18.006;2023-07-31T08:55:22;100501.06;;;27.20;39.16
77005;BME280;67261;53.132;18.006;2023-07-31T08:57:52;100501.09;;;27.26;39.06
77005;BME280;67261;53.132;18.006;2023-07-31T09:00:22;100499.34;;;27.27;39.37
77005;BME280;67261;53.132;18.006;2023-07-31T09:02:56;100497.27;;;27.27;39.47
77005;BME280;67261;53.132;18.006;2023-07-31T09:05:26;100491.54;;;27.23;39.21
77005;BME280;67261;53.132;18.006;2023-07-31T09:07:53;100491.25;;;27.18;39.31
77005;BME280;67261;53.132;18.006;2023-07-31T09:10:22;100489.35;;;27.04;39.30
77005;BME280;67261;53.132;18.006;2023-07-31T09:12:51;100488.73;;;26.87;39.67
77005;BME280;67261;53.132;18.006;2023-07-31T09:15:18;100484.66;;;26.66;39.81
77005;BME280;67261;53.132;18.006;2023-07-31T09:17:44;100482.25;;;26.51;40.33
77005;BME280;67261;53.132;18.006;2023-07-31T09:20:16;100478.60;;;26.33;40.63
77005;BME280;67261;53.132;18.006;2023-07-31T09:22:43;100471.02;;;26.31;40.91
77005;BME280;67261;53.132;18.006;2023-07-31T09:25:19;100471.54;;;26.27;41.20
77005;BME280;67261;53.132;18.006;2023-07-31T09:27:58;100472.80;;;26.21;41.26
77005;BME280;67261;53.132;18.006;2023-07-31T09:30:25;100471.61;;;26.10;41.87
77005;BME280;67261;53.132;18.006;2023-07-31T09:33:02;100466.39;;;25.81;42.05
77005;BME280;67261;53.132;18.006;2023-07-31T09:35:31;100467.80;;;25.45;42.45
77005;BME280;67261;53.132;18.006;2023-07-31T09:38:00;100463.73;;;25.19;42.91
77005;BME280;67261;53.132;18.006;2023-07-31T09:40:28;100459.09;;;25.06;43.26
77005;BME280;67261;53.132;18.006;2023-07-31T09:43:00;100459.75;;;25.18;43.18
77005;BME280;67261;53.132;18.006;2023-07-31T09:45:28;100450.38;;;25.41;43.18
77005;BME280;67261;53.132;18.006;2023-07-31T09:47:56;100446.45;;;25.55;43.24
77005;BME280;67261;53.132;18.006;2023-07-31T09:50:24;100446.31;;;25.54;43.36
77005;BME280;67261;53.132;18.006;2023-07-31T09:52:51;100439.99;;;25.37;43.63
77005;BME280;67261;53.132;18.006;2023-07-31T09:55:20;100443.17;;;25.07;43.67
77005;BME280;67261;53.132;18.006;2023-07-31T09:57:49;100450.15;;;24.77;43.97
77005;BME280;67261;53.132;18.006;2023-07-31T10:00:17;100457.92;;;24.41;44.89
77005;BME280;67261;53.132;18.006;2023-07-31T10:02:45;100462.83;;;24.06;45.78
77005;BME280;67261;53.132;18.006;2023-07-31T10:05:14;100475.84;;;23.76;46.66
77005;BME280;67261;53.132;18.006;2023-07-31T10:07:51;100477.95;;;23.51;47.72
77005;BME280;67261;53.132;18.006;2023-07-31T10:10:21;100467.64;;;23.27;48.95
77005;BME280;67261;53.132;18.006;2023-07-31T10:12:49;100459.52;;;23.18;49.59
77005;BME280;67261;53.132;18.006;2023-07-31T10:15:19;100450.14;;;23.27;50.35
77005;BME280;67261;53.132;18.006;2023-07-31T10:17:50;100446.09;;;23.45;50.78
77005;BME280;67261;53.132;18.006;2023-07-31T10:20:18;100447.36;;;23.61;50.95
77005;BME280;67261;53.132;18.006;2023-07-31T10:22:44;100445.29;;;23.73;51.13
77005;BME280;67261;53.132;18.006;2023-07-31T10:25:15;100439.74;;;23.72;51.07
77005;BME280;67261;53.132;18.006;2023-07-31T10:27:42;100437.28;;;23.78;51.10
77005;BME280;67261;53.132;18.006;2023-07-31T10:30:12;100430.63;;;23.86;51.39
77005;BME280;67261;53.132;18.006;2023-07-31T10:32:41;100423.91;;;23.93;51.56
77005;BME280;67261;53.132;18.006;2023-07-31T10:35:09;100424.16;;;23.95;51.43
77005;BME280;67261;53.132;18.006;2023-07-31T10:37:38;100418.02;;;24.02;51.63
77005;BME280;67261;53.132;18.006;2023-07-31T10:40:19;100411.55;;;24.15;51.08
77005;BME280;67261;53.132;18.006;2023-07-31T10:42:56;100406.27;;;24.33;50.19
77005;BME280;67261;53.132;18.006;2023-07-31T10:45:38;100392.77;;;24.59;50.26
77005;BME280;67261;53.132;18.006;2023-07-31T10:48:13;100391.12;;;24.90;50.08
77005;BME280;67261;53.132;18.006;2023-07-31T10:50:50;100374.33;;;25.04;49.73
77005;BME280;67261;53.132;18.006;2023-07-31T10:53:31;100378.47;;;25.28;49.31
77005;BME280;67261;53.132;18.006;2023-07-31T10:56:06;100374.05;;;25.52;48.91
77005;BME280;67261;53.132;18.006;2023-07-31T10:58:33;100379.33;;;25.66;48.12
77005;BME280;67261;53.132;18.006;2023-07-31T11:01:02;100372.44;;;25.60;48.29
77005;BME280;67261;53.132;18.006;2023-07-31T11:03:45;100367.35;;;25.50;48.06
77005;BME280;67261;53.132;18.006;2023-07-31T11:06:12;100365.05;;;25.52;47.22
77005;BME280;67261;53.132;18.006;2023-07-31T11:08:50;100361.86;;;25.55;47.25
77005;BME280;67261;53.132;18.006;2023-07-31T11:11:18;100362.62;;;25.50;46.67
77005;BME280;67261;53.132;18.006;2023-07-31T11:13:46;100361.43;;;25.25;47.21
77005;BME280;67261;53.132;18.006;2023-07-31T11:16:17;100363.13;;;24.88;47.24
77005;BME280;67261;53.132;18.006;2023-07-31T11:18:45;100363.20;;;24.47;47.43
77005;BME280;67261;53.132;18.006;2023-07-31T11:21:17;100366.39;;;24.09;47.70
77005;BME280;67261;53.132;18.006;2023-07-31T11:23:49;100367.87;;;23.77;48.25
77005;BME280;67261;53.132;18.006;2023-07-31T11:26:16;100372.85;;;23.51;48.72
77005;BME280;67261;53.132;18.006;2023-07-31T11:28:46;100384.90;;;23.31;48.97
77005;BME280;67261;53.132;18.006;2023-07-31T11:31:13;100382.60;;;23.08;49.31
77005;BME280;67261;53.132;18.006;2023-07-31T11:33:39;100388.71;;;22.93;49.57
77005;BME280;67261;53.132;18.006;2023-07-31T11:36:06;100396.18;;;22.79;50.49
77005;BME280;67261;53.132;18.006;2023-07-31T11:38:33;100399.15;;;22.61;51.80
77005;BME280;67261;53.132;18.006;2023-07-31T11:41:05;100397.21;;;22.48;52.56
77005;BME280;67261;53.132;18.006;2023-07-31T11:43:32;100397.05;;;22.46;53.48
77005;BME280;67261;53.132;18.006;2023-07-31T11:46:02;100393.37;;;22.53;53.86
77005;BME280;67261;53.132;18.006;2023-07-31T11:48:31;100393.75;;;22.71;53.65
77005;BME280;67261;53.132;18.006;2023-07-31T11:51:00;100394.36;;;23.09;53.79
77005;BME280;67261;53.132;18.006;2023-07-31T11:53:31;100390.54;;;23.41;53.36
77005;BME280;67261;53.132;18.006;2023-07-31T11:56:00;100389.64;;;23.61;53.24
77005;BME280;67261;53.132;18.006;2023-07-31T11:58:29;100386.80;;;23.70;52.74
77005;BME280;67261;53.132;18.006;2023-07-31T12:00:56;100388.73;;;23.79;52.60
77005;BME280;67261;53.132;18.006;2023-07-31T12:03:24;100385.67;;;23.88;52.38
77005;BME280;67261;53.132;18.006;2023-07-31T12:05:50;100387.61;;;23.95;52.29
77005;BME280;67261;53.132;18.006;2023-07-31T12:08:16;100386.73;;;24.03;52.08
77005;BME280;67261;53.132;18.006;2023-07-31T12:10:43;100385.27;;;24.13;51.98
77005;BME280;67261;53.132;18.006;2023-07-31T12:13:12;100387.13;;;24.21;51.88
77005;BME280;67261;53.132;18.006;2023-07-31T12:15:48;100381.16;;;24.38;51.68
77005;BME280;67261;53.132;18.006;2023-07-31T12:18:19;100372.53;;;24.56;51.23
77005;BME280;67261;53.132;18.006;2023-07-31T12:20:48;100372.00;;;24.71;50.86
77005;BME280;67261;53.132;18.006;2023-07-31T12:25:41;100365.30;;;24.98;50.69
77005;BME280;67261;53.132;18.006;2023-07-31T12:28:08;100357.94;;;25.05;50.46
77005;BME280;67261;53.132;18.006;2023-07-31T12:30:39;100356.14;;;25.09;50.14
77005;BME280;67261;53.132;18.006;2023-07-31T12:33:14;100350.45;;;25.12;49.69
77005;BME280;67261;53.132;18.006;2023-07-31T12:35:44;100347.43;;;25.09;49.57
77005;BME280;67261;53.132;18.006;2023-07-31T12:38:14;100347.38;;;24.94;49.57
77005;BME280;67261;53.132;18.006;2023-07-31T12:40:41;100343.13;;;24.77;49.40
77005;BME280;67261;53.132;18.006;2023-07-31T12:43:08;100343.01;;;24.56;49.78
77005;BME280;67261;53.132;18.006;2023-07-31T12:45:34;100346.17;;;24.25;50.16
77005;BME280;67261;53.132;18.006;2023-07-31T12:48:01;100346.04;;;23.89;50.47
77005;BME280;67261;53.132;18.006;2023-07-31T12:50:28;100345.05;;;23.58;51.09
77005;BME280;67261;53.132;18.006;2023-07-31T12:52:57;100348.48;;;23.36;51.63
77005;BME280;67261;53.132;18.006;2023-07-31T12:55:23;100347.58;;;23.22;52.16